createdAt,value
2018-06-12T00:02:20.503Z,43.53
2018-06-12T00:04:48.774Z,56.80
2018-06-12T00:07:17.016Z,78.40
2018-06-12T00:09:45.047Z,73.93
2018-06-12T00:12:13.287Z,42.70
2018-06-12T00:14:41.574Z,50.50
2018-06-12T00:17:09.845Z,74.37
2018-06-12T00:19:38.101Z,83.63
2018-06-12T00:22:06.375Z,76.73
2018-06-12T00:24:34.665Z,111.87
2018-06-12T00:27:02.926Z,93.70
2018-06-12T00:29:30.933Z,117.80
2018-06-12T00:31:59.209Z,136.43
2018-06-12T00:34:27.467Z,98.77
2018-06-12T00:36:55.726Z,146.13
2018-06-12T00:39:24.037Z,102.50
2018-06-12T00:41:52.307Z,155.27
2018-06-12T00:44:20.605Z,173.63
2018-06-12T00:46:48.871Z,108.10
2018-06-12T00:49:17.159Z,125.67
2018-06-12T00:51:45.377Z,111.67
2018-06-12T00:54:13.687Z,148.87
2018-06-12T00:56:53.334Z,155.03
2018-06-12T00:59:21.608Z,127.73
2018-06-12T01:01:50.819Z,118.97
2018-06-12T01:04:19.073Z,110.43
2018-06-12T01:06:47.310Z,111.13
2018-06-12T01:09:15.554Z,92.43
2018-06-12T01:11:43.785Z,115.80
2018-06-12T01:14:12.033Z,131.87
2018-06-12T01:16:40.279Z,121.20
2018-06-12T01:19:08.530Z,88.00
2018-06-12T01:21:36.770Z,103.27
2018-06-12T01:24:04.981Z,93.43
2018-06-12T01:26:33.270Z,111.43
2018-06-12T01:29:01.555Z,121.10
2018-06-12T01:31:29.827Z,116.27
2018-06-12T01:33:58.100Z,113.60
2018-06-12T01:36:26.362Z,147.90
2018-06-12T01:38:54.648Z,114.37
2018-06-12T01:41:23.006Z,123.60
2018-06-12T01:43:51.262Z,89.00
2018-06-12T01:46:19.491Z,91.53
2018-06-12T01:48:47.734Z,101.47
2018-06-12T01:51:15.741Z,97.90
2018-06-12T01:53:43.977Z,103.30
2018-06-12T01:56:11.996Z,114.63
2018-06-12T01:58:40.253Z,123.47
2018-06-12T02:01:08.538Z,117.77
2018-06-12T02:03:36.765Z,105.70
2018-06-12T02:06:04.765Z,121.03
2018-06-12T02:08:33.041Z,110.23
2018-06-12T02:11:01.305Z,100.47
2018-06-12T02:13:29.587Z,77.17
2018-06-12T02:15:57.870Z,84.97
2018-06-12T02:18:26.187Z,72.17
2018-06-12T02:20:54.410Z,78.07
2018-06-12T02:23:22.654Z,74.77
2018-06-12T02:25:50.925Z,71.10
2018-06-12T02:28:19.149Z,77.43
2018-06-12T02:30:47.421Z,77.13
2018-06-12T02:33:15.698Z,83.40
2018-06-12T02:35:43.970Z,75.67
2018-06-12T02:38:12.169Z,78.97
2018-06-12T02:40:40.407Z,86.73
2018-06-12T02:43:08.525Z,63.73
2018-06-12T02:45:36.770Z,77.23
2018-06-12T02:48:05.026Z,80.50
2018-06-12T02:50:33.023Z,65.47
2018-06-12T02:53:01.286Z,69.60
2018-06-12T02:55:29.527Z,68.40
2018-06-12T02:57:57.807Z,74.03
2018-06-12T03:00:26.066Z,69.97
2018-06-12T03:02:54.338Z,75.50
2018-06-12T03:05:22.580Z,77.07
2018-06-12T03:07:50.853Z,71.83
2018-06-12T03:10:19.097Z,66.53
2018-06-12T03:12:47.349Z,71.30
2018-06-12T03:15:15.659Z,65.47
2018-06-12T03:17:43.636Z,60.37
2018-06-12T03:20:11.608Z,68.97
2018-06-12T03:22:39.889Z,76.03
2018-06-12T03:25:08.163Z,73.17
2018-06-12T03:27:36.447Z,68.83
2018-06-12T03:30:04.814Z,64.90
2018-06-12T03:32:33.079Z,68.47
2018-06-12T03:35:01.062Z,64.80
2018-06-12T03:37:29.287Z,56.93
2018-06-12T03:39:57.510Z,55.80
2018-06-12T03:42:25.790Z,56.97
2018-06-12T03:44:53.770Z,59.33
2018-06-12T03:47:22.042Z,54.57
2018-06-12T03:49:50.318Z,64.53
2018-06-12T03:52:23.825Z,59.67
2018-06-12T03:54:52.165Z,60.20
2018-06-12T03:57:20.386Z,70.50
2018-06-12T03:59:48.611Z,69.80
2018-06-12T04:02:16.866Z,77.00
2018-06-12T04:04:45.090Z,75.30
2018-06-12T04:07:13.342Z,73.57
2018-06-12T04:09:41.598Z,81.03
2018-06-12T04:12:09.880Z,89.97
2018-06-12T04:14:38.093Z,94.60
2018-06-12T04:17:06.087Z,85.37
2018-06-12T04:19:34.318Z,82.83
2018-06-12T04:22:02.607Z,99.17
2018-06-12T04:24:30.874Z,78.30
2018-06-12T04:26:59.969Z,92.23
2018-06-12T04:29:28.245Z,63.70
2018-06-12T04:31:56.530Z,75.40
2018-06-12T04:34:24.831Z,82.30
2018-06-12T04:36:53.110Z,74.33
2018-06-12T04:39:21.375Z,80.33
2018-06-12T04:41:49.377Z,62.87
2018-06-12T04:44:17.615Z,80.17
2018-06-12T04:46:45.877Z,78.60
2018-06-12T04:49:14.113Z,81.30
2018-06-12T04:51:42.341Z,98.77
2018-06-12T04:54:10.619Z,80.67
2018-06-12T04:56:38.624Z,55.37
2018-06-12T04:59:06.906Z,64.27
2018-06-12T05:01:35.133Z,50.27
2018-06-12T05:04:03.125Z,56.53
2018-06-12T05:06:31.412Z,49.70
2018-06-12T05:08:59.650Z,48.77
2018-06-12T05:11:27.617Z,49.27
2018-06-12T05:13:55.806Z,47.67
2018-06-12T05:16:24.089Z,46.17
2018-06-12T05:18:52.355Z,44.70
2018-06-12T05:21:20.324Z,45.03
2018-06-12T05:23:48.310Z,34.50
2018-06-12T05:26:16.535Z,33.40
2018-06-12T05:28:44.818Z,28.27
2018-06-12T05:31:13.074Z,34.77
2018-06-12T05:33:41.323Z,38.73
2018-06-12T05:36:09.554Z,38.20
2018-06-12T05:38:37.845Z,39.07
2018-06-12T05:41:06.122Z,35.63
2018-06-12T05:43:34.161Z,39.53
2018-06-12T05:46:02.444Z,40.17
2018-06-12T05:48:30.758Z,33.37
2018-06-12T05:50:59.014Z,30.00
2018-06-12T05:53:27.294Z,29.57
2018-06-12T05:55:55.313Z,33.07
2018-06-12T05:58:23.543Z,28.57
2018-06-12T06:00:51.513Z,28.23
2018-06-12T06:03:19.498Z,28.57
2018-06-12T06:05:47.766Z,29.53
2018-06-12T06:08:16.019Z,33.47
2018-06-12T06:10:44.279Z,29.67
2018-06-12T06:13:12.485Z,30.37
2018-06-12T06:15:40.469Z,31.40
2018-06-12T06:18:08.727Z,28.23
2018-06-12T06:20:36.965Z,33.43
2018-06-12T06:23:05.271Z,30.07
2018-06-12T06:25:33.536Z,31.63
2018-06-12T06:28:01.862Z,29.33
2018-06-12T06:30:30.090Z,27.83
2018-06-12T06:32:58.354Z,34.27
2018-06-12T06:35:26.611Z,24.47
2018-06-12T06:37:54.850Z,30.40
2018-06-12T06:40:23.092Z,26.10
2018-06-12T06:42:51.338Z,34.20
2018-06-12T06:45:19.659Z,30.87
2018-06-12T06:47:47.945Z,25.60
2018-06-12T06:50:16.187Z,28.23
2018-06-12T06:52:44.444Z,28.53
2018-06-12T06:55:12.666Z,25.13
2018-06-12T06:57:40.957Z,23.70
2018-06-12T07:00:09.002Z,27.00
2018-06-12T07:02:37.253Z,26.97
2018-06-12T07:05:05.477Z,30.17
2018-06-12T07:07:33.421Z,27.37
2018-06-12T07:10:01.715Z,27.03
2018-06-12T07:12:30.012Z,30.30
2018-06-12T07:14:58.302Z,28.20
2018-06-12T07:17:26.557Z,29.93
2018-06-12T07:19:54.573Z,27.83
2018-06-12T07:22:22.858Z,28.07
2018-06-12T07:24:51.158Z,25.83
2018-06-12T07:27:19.422Z,31.50
2018-06-12T07:29:47.725Z,28.53
2018-06-12T07:32:15.807Z,24.27
2018-06-12T07:34:44.066Z,26.97
2018-06-12T07:37:12.322Z,25.47
2018-06-12T07:39:40.589Z,26.57
2018-06-12T07:42:08.875Z,25.70
2018-06-12T07:44:37.179Z,26.43
2018-06-12T07:47:05.443Z,25.90
2018-06-12T07:49:33.720Z,30.73
2018-06-12T07:52:01.953Z,32.97
2018-06-12T07:54:30.226Z,32.87
2018-06-12T07:56:58.453Z,34.47
2018-06-12T07:59:26.695Z,36.33
2018-06-12T08:02:01.213Z,37.87
2018-06-12T08:07:05.868Z,54.83
2018-06-12T08:09:34.103Z,50.63
2018-06-12T08:12:02.334Z,50.87
2018-06-12T08:14:30.666Z,68.80
2018-06-12T08:16:58.932Z,42.27
2018-06-12T08:19:27.176Z,49.20
2018-06-12T08:21:57.629Z,49.60
2018-06-12T08:24:31.432Z,50.80
2018-06-12T08:27:01.310Z,59.30
2018-06-12T08:29:29.579Z,49.73
2018-06-12T08:31:57.843Z,57.00
2018-06-12T08:34:26.131Z,44.17
2018-06-12T08:36:54.440Z,38.93
2018-06-12T08:39:23.395Z,47.67
2018-06-12T08:41:51.659Z,35.83
2018-06-12T08:44:19.907Z,38.03
2018-06-12T08:46:52.391Z,40.73
2018-06-12T08:49:31.004Z,34.17
2018-06-12T08:52:01.991Z,41.73
2018-06-12T08:54:30.302Z,39.87
2018-06-12T08:57:02.656Z,41.07
2018-06-12T08:59:33.691Z,40.73
2018-06-12T09:02:02.019Z,39.77
2018-06-12T09:04:30.310Z,33.97
2018-06-12T09:06:58.533Z,34.43
2018-06-12T09:09:26.485Z,28.10
2018-06-12T09:11:54.659Z,34.73
2018-06-12T09:14:22.834Z,42.50
2018-06-12T09:16:51.018Z,36.17
2018-06-12T09:19:19.181Z,22.87
2018-06-12T09:21:47.371Z,21.63
2018-06-12T09:24:15.537Z,15.87
2018-06-12T09:26:43.705Z,17.57
2018-06-12T09:29:11.873Z,19.43
2018-06-12T09:31:40.091Z,23.87
2018-06-12T09:34:08.270Z,20.07
2018-06-12T09:36:36.454Z,18.10
2018-06-12T09:39:07.836Z,17.00
2018-06-12T09:41:36.086Z,13.57
2018-06-12T09:44:04.267Z,11.00
2018-06-12T09:46:32.433Z,10.00
2018-06-12T09:49:00.637Z,11.63
2018-06-12T09:51:28.762Z,10.47
2018-06-12T09:53:56.933Z,8.30
2018-06-12T09:56:25.136Z,9.10
2018-06-12T09:58:53.330Z,10.50
2018-06-12T10:01:22.173Z,9.90
2018-06-12T10:03:52.353Z,8.50
2018-06-12T10:06:20.599Z,8.77
2018-06-12T10:08:48.770Z,11.47
2018-06-12T10:11:16.959Z,7.53
2018-06-12T10:13:45.129Z,13.43
2018-06-12T10:16:13.329Z,6.27
2018-06-12T10:18:41.518Z,7.50
2018-06-12T10:21:09.715Z,6.77
2018-06-12T10:23:37.916Z,7.17
2018-06-12T10:26:06.102Z,7.53
2018-06-12T10:28:34.317Z,10.07
2018-06-12T10:31:02.522Z,9.87
2018-06-12T10:33:30.763Z,10.70
2018-06-12T10:35:59.003Z,9.20
2018-06-12T10:38:27.217Z,8.23
2018-06-12T10:40:55.515Z,8.80
2018-06-12T10:43:23.755Z,10.10
2018-06-12T10:45:52.133Z,9.83
2018-06-12T10:48:20.406Z,9.00
2018-06-12T10:50:48.706Z,9.77
2018-06-12T10:53:16.996Z,10.43
2018-06-12T10:55:45.273Z,10.57
2018-06-12T10:58:13.529Z,9.30
2018-06-12T11:00:41.860Z,10.90
2018-06-12T11:03:10.183Z,10.87
2018-06-12T11:05:38.436Z,10.93
2018-06-12T11:08:06.730Z,11.40
2018-06-12T11:10:34.983Z,11.83
2018-06-12T11:13:03.786Z,11.13
2018-06-12T11:15:31.793Z,11.23
2018-06-12T11:18:00.040Z,11.43
2018-06-12T11:20:28.283Z,9.90
2018-06-12T11:22:56.554Z,9.90
2018-06-12T11:25:24.866Z,10.33
2018-06-12T11:27:53.158Z,11.60
2018-06-12T11:30:21.450Z,11.67
2018-06-12T11:32:49.753Z,11.47
2018-06-12T11:35:18.031Z,11.50
2018-06-12T11:37:46.277Z,13.47
2018-06-12T11:40:14.274Z,13.83
2018-06-12T11:42:42.522Z,13.83
2018-06-12T11:45:10.465Z,12.97
2018-06-12T11:47:38.730Z,13.37
2018-06-12T11:50:07.023Z,13.87
2018-06-12T11:52:35.010Z,16.20
2018-06-12T11:55:03.008Z,13.97
2018-06-12T11:57:31.348Z,14.07
2018-06-12T11:59:59.330Z,13.27
2018-06-12T12:02:27.338Z,14.27
2018-06-12T12:04:55.584Z,15.23
2018-06-12T12:07:23.882Z,16.37
2018-06-12T12:09:52.168Z,17.23
2018-06-12T12:12:20.495Z,17.83
2018-06-12T12:14:48.529Z,17.40
2018-06-12T12:17:16.836Z,17.87
2018-06-12T12:19:45.129Z,16.83
2018-06-12T12:22:13.122Z,18.83
2018-06-12T12:24:41.402Z,18.83
2018-06-12T12:27:09.726Z,20.30
2018-06-12T12:29:37.991Z,18.63
2018-06-12T12:32:06.282Z,17.77
2018-06-12T12:34:34.559Z,18.87
2018-06-12T12:37:02.806Z,18.87
2018-06-12T12:39:31.082Z,21.10
2018-06-12T12:41:59.367Z,20.83
2018-06-12T12:44:27.647Z,19.83
2018-06-12T12:46:55.901Z,22.17
2018-06-12T12:49:24.269Z,19.67
2018-06-12T12:51:52.497Z,21.77
2018-06-12T12:54:20.816Z,21.17
2018-06-12T12:56:49.090Z,22.33
2018-06-12T12:59:17.369Z,24.67
2018-06-12T13:01:45.675Z,24.63
2018-06-12T13:04:13.948Z,27.17
2018-06-12T13:06:42.279Z,29.50
2018-06-12T13:09:10.281Z,32.37
2018-06-12T13:11:38.570Z,30.73
2018-06-12T13:14:06.847Z,30.47
2018-06-12T13:16:35.109Z,25.13
2018-06-12T13:19:03.446Z,26.33
2018-06-12T13:21:31.788Z,25.87
2018-06-12T13:24:00.039Z,27.70
2018-06-12T13:26:28.448Z,25.30
2018-06-12T13:28:56.630Z,27.97
2018-06-12T13:31:24.790Z,27.20
2018-06-12T13:33:53.049Z,23.67
2018-06-12T13:36:21.179Z,28.23
2018-06-12T13:38:51.458Z,26.47
2018-06-12T13:41:19.637Z,26.87
2018-06-12T13:43:47.829Z,23.53
2018-06-12T13:46:15.973Z,26.17
2018-06-12T13:48:44.202Z,28.67
2018-06-12T13:51:12.363Z,25.87
2018-06-12T13:53:40.537Z,27.37
2018-06-12T13:56:08.694Z,24.37
2018-06-12T13:58:36.942Z,24.93
2018-06-12T14:01:05.145Z,23.73
2018-06-12T14:03:33.391Z,21.43
2018-06-12T14:06:01.598Z,24.03
2018-06-12T14:08:29.854Z,25.20
2018-06-12T14:10:58.052Z,26.43
2018-06-12T14:13:26.318Z,23.50
2018-06-12T14:15:54.454Z,26.63
2018-06-12T14:18:22.666Z,27.67
2018-06-12T14:20:50.866Z,30.20
2018-06-12T14:23:18.837Z,29.37
2018-06-12T14:25:47.059Z,30.93
2018-06-12T14:28:15.300Z,28.53
2018-06-12T14:30:43.438Z,29.27
2018-06-12T14:33:12.099Z,28.73
2018-06-12T14:35:40.318Z,28.40
2018-06-12T14:38:08.534Z,29.27
2018-06-12T14:40:36.800Z,27.40
2018-06-12T14:43:04.891Z,29.03
2018-06-12T14:45:33.077Z,25.03
2018-06-12T14:48:01.261Z,29.20
2018-06-12T14:50:29.457Z,25.27
2018-06-12T14:52:57.633Z,24.60
2018-06-12T14:55:25.815Z,30.53
2018-06-12T14:57:54.048Z,30.17
2018-06-12T15:00:22.263Z,27.73
2018-06-12T15:02:50.411Z,26.93
2018-06-12T15:05:18.629Z,33.93
2018-06-12T15:07:46.806Z,32.53
2018-06-12T15:10:15.016Z,33.53
2018-06-12T15:12:43.256Z,33.13
2018-06-12T15:15:11.395Z,31.10
2018-06-12T15:17:39.668Z,30.10
2018-06-12T15:20:07.944Z,24.37
2018-06-12T15:22:36.216Z,24.97
2018-06-12T15:25:04.533Z,29.80
2018-06-12T15:27:32.869Z,25.87
2018-06-12T15:30:01.113Z,23.93
2018-06-12T15:32:29.298Z,26.30
2018-06-12T15:34:57.536Z,27.03
2018-06-12T15:37:25.506Z,23.30
2018-06-12T15:39:53.721Z,25.93
2018-06-12T15:42:21.969Z,27.17
2018-06-12T15:44:50.247Z,27.03
2018-06-12T15:47:18.150Z,25.47
2018-06-12T15:49:46.342Z,28.60
2018-06-12T15:52:14.550Z,28.53
2018-06-12T15:54:42.499Z,23.97
2018-06-12T15:57:10.697Z,24.80
2018-06-12T15:59:38.645Z,27.23
2018-06-12T16:02:07.158Z,29.10
2018-06-12T16:04:35.419Z,28.83
2018-06-12T16:07:03.618Z,24.43
2018-06-12T16:09:31.866Z,21.67
2018-06-12T16:12:00.071Z,23.00
2018-06-12T16:14:28.283Z,18.43
2018-06-12T16:16:56.504Z,24.43
2018-06-12T16:19:24.702Z,23.57
2018-06-12T16:21:52.879Z,18.77
2018-06-12T16:24:21.089Z,18.33
2018-06-12T16:26:49.310Z,18.83
2018-06-12T16:29:17.578Z,19.87
2018-06-12T16:31:45.787Z,19.33
2018-06-12T16:34:14.014Z,19.47
2018-06-12T16:36:42.216Z,17.30
2018-06-12T16:39:10.411Z,15.93
2018-06-12T16:41:38.586Z,19.50
2018-06-12T16:44:06.809Z,17.90
2018-06-12T16:46:35.018Z,18.70
2018-06-12T16:49:03.344Z,16.47
2018-06-12T16:51:31.579Z,32.20
2018-06-12T16:53:59.865Z,14.67
2018-06-12T16:56:28.128Z,12.73
2018-06-12T16:58:56.083Z,12.50
2018-06-12T17:01:24.381Z,11.20
2018-06-12T17:03:52.678Z,14.00
2018-06-12T17:06:20.990Z,10.73
2018-06-12T17:08:49.074Z,11.83
2018-06-12T17:11:17.271Z,12.70
2018-06-12T17:13:45.478Z,8.33
2018-06-12T17:16:13.711Z,7.40
2018-06-12T17:18:41.983Z,10.10
2018-06-12T17:21:10.300Z,8.60
2018-06-12T17:23:38.561Z,10.63
2018-06-12T17:26:06.823Z,9.10
2018-06-12T17:28:35.126Z,8.33
2018-06-12T17:31:03.403Z,10.43
2018-06-12T17:33:31.638Z,8.60
2018-06-12T17:35:59.898Z,10.50
2018-06-12T17:38:28.119Z,8.00
2018-06-12T17:40:56.349Z,9.70
2018-06-12T17:43:24.278Z,11.63
2018-06-12T17:45:52.443Z,8.90
2018-06-12T17:48:20.604Z,10.33
2018-06-12T17:50:48.770Z,8.90
2018-06-12T17:53:16.953Z,11.30
2018-06-12T17:55:45.130Z,8.00
2018-06-12T17:58:13.394Z,7.87
2018-06-12T18:00:41.571Z,8.80
2018-06-12T18:03:09.788Z,7.30
2018-06-12T18:05:37.913Z,8.40
2018-06-12T18:08:06.084Z,9.40
2018-06-12T18:10:34.246Z,9.60
2018-06-12T18:13:02.435Z,10.20
2018-06-12T18:15:30.621Z,10.13
2018-06-12T18:17:58.794Z,8.50
2018-06-12T18:20:27.012Z,8.13
2018-06-12T18:22:55.212Z,8.10
2018-06-12T18:25:23.455Z,8.90
2018-06-12T18:27:51.646Z,8.67
2018-06-12T18:30:19.840Z,8.50
2018-06-12T18:32:48.047Z,10.93
2018-06-12T18:35:16.267Z,8.67
2018-06-12T18:37:44.455Z,12.37
2018-06-12T18:40:12.694Z,10.70
2018-06-12T18:42:40.901Z,13.77
2018-06-12T18:45:09.195Z,10.53
2018-06-12T18:47:37.381Z,8.93
2018-06-12T18:50:05.576Z,9.03
2018-06-12T18:52:33.742Z,14.37
2018-06-12T18:55:01.926Z,10.80
2018-06-12T18:57:30.139Z,11.57
2018-06-12T18:59:58.311Z,11.60
2018-06-12T19:02:26.548Z,8.50
2018-06-12T19:04:54.718Z,8.70
2018-06-12T19:07:22.959Z,7.70
2018-06-12T19:09:50.917Z,12.23
2018-06-12T19:12:19.113Z,11.20
2018-06-12T19:14:47.918Z,9.90
2018-06-12T19:17:16.144Z,13.37
2018-06-12T19:19:44.347Z,12.83
2018-06-12T19:22:12.249Z,12.13
2018-06-12T19:24:40.825Z,10.27
2018-06-12T19:27:09.011Z,11.43
2018-06-12T19:29:37.214Z,10.83
2018-06-12T19:32:05.402Z,12.57
2018-06-12T19:34:33.586Z,12.17
2018-06-12T19:37:01.750Z,13.43
2018-06-12T19:39:29.974Z,12.30
2018-06-12T19:41:58.189Z,11.37
2018-06-12T19:44:26.393Z,12.33
2018-06-12T19:46:54.552Z,11.20
2018-06-12T19:49:22.742Z,11.07
2018-06-12T19:51:50.921Z,14.53
2018-06-12T19:54:18.853Z,13.90
2018-06-12T19:56:47.049Z,12.87
2018-06-12T19:59:14.992Z,13.50
2018-06-12T20:01:43.193Z,16.30
2018-06-12T20:04:11.132Z,13.83
2018-06-12T20:06:39.321Z,17.50
2018-06-12T20:09:08.507Z,14.43
2018-06-12T20:11:36.689Z,18.10
2018-06-12T20:14:04.916Z,18.73
2018-06-12T20:16:33.090Z,14.07
2018-06-12T20:19:01.258Z,13.93
2018-06-12T20:21:29.427Z,15.37
2018-06-12T20:23:57.602Z,15.93
2018-06-12T20:26:25.814Z,14.20
2018-06-12T20:28:54.025Z,14.50
2018-06-12T20:31:22.197Z,15.60
2018-06-12T20:33:50.409Z,18.23
2018-06-12T20:36:18.577Z,16.17
2018-06-12T20:38:46.549Z,16.20
2018-06-12T20:41:14.768Z,12.87
2018-06-12T20:43:42.968Z,19.53
2018-06-12T20:46:11.163Z,26.23
2018-06-12T20:48:39.326Z,17.07
2018-06-12T20:51:07.318Z,19.40
2018-06-12T20:53:35.535Z,17.97
2018-06-12T20:56:03.776Z,20.17
2018-06-12T20:58:32.036Z,19.70
2018-06-12T21:03:34.933Z,20.57
2018-06-12T21:06:02.953Z,22.17
2018-06-12T21:08:31.271Z,22.67
2018-06-12T21:10:59.318Z,21.60
2018-06-12T21:13:27.594Z,24.53
2018-06-12T21:15:55.910Z,26.40
2018-06-12T21:18:24.194Z,23.67
2018-06-12T21:20:52.466Z,24.53
2018-06-12T21:23:20.734Z,26.27
2018-06-12T21:25:49.039Z,27.07
2018-06-12T21:28:17.354Z,24.37
2018-06-12T21:30:45.675Z,26.10
2018-06-12T21:33:13.953Z,26.73
2018-06-12T21:35:42.270Z,30.13
2018-06-12T21:38:10.547Z,31.20
2018-06-12T21:40:39.411Z,32.80
2018-06-12T21:43:07.711Z,27.60
2018-06-12T21:45:35.990Z,33.83
2018-06-12T21:48:04.291Z,27.67
2018-06-12T21:50:32.590Z,30.20
2018-06-12T21:53:00.847Z,27.93
2018-06-12T21:55:29.140Z,26.37
2018-06-12T21:57:57.142Z,48.57
2018-06-12T22:00:30.990Z,27.97
2018-06-12T22:02:59.618Z,38.53
2018-06-12T22:05:27.857Z,27.50
2018-06-12T22:07:56.111Z,30.20
2018-06-12T22:10:24.355Z,28.43
2018-06-12T22:12:52.606Z,28.93
2018-06-12T22:15:20.899Z,28.10
2018-06-12T22:17:50.316Z,28.73
2018-06-12T22:20:18.575Z,28.73
2018-06-12T22:22:46.880Z,28.60
2018-06-12T22:25:15.114Z,27.90
2018-06-12T22:27:43.173Z,40.33
2018-06-12T22:30:11.373Z,26.23
2018-06-12T22:32:39.639Z,29.23
2018-06-12T22:35:07.646Z,30.17
2018-06-12T22:37:35.962Z,30.57
2018-06-12T22:40:04.259Z,27.33
2018-06-12T22:42:32.514Z,26.87
2018-06-12T22:45:00.779Z,28.17
2018-06-12T22:47:29.049Z,27.07
2018-06-12T22:49:57.325Z,26.73
2018-06-12T22:52:25.594Z,26.73
2018-06-12T22:54:53.887Z,26.70
2018-06-12T22:57:22.118Z,25.87
2018-06-12T22:59:50.374Z,24.00
2018-06-12T23:02:18.345Z,24.60
2018-06-12T23:04:46.602Z,24.70
2018-06-12T23:07:14.877Z,22.57
2018-06-12T23:09:43.065Z,24.20
2018-06-12T23:12:10.986Z,23.73
2018-06-12T23:14:39.142Z,22.23
2018-06-12T23:17:07.464Z,22.67
2018-06-12T23:19:46.809Z,23.33
2018-06-12T23:22:14.982Z,22.07
2018-06-12T23:24:43.146Z,21.40
2018-06-12T23:27:11.374Z,20.00
2018-06-12T23:29:39.510Z,22.30
2018-06-12T23:32:07.676Z,22.57
2018-06-12T23:34:35.841Z,22.67
2018-06-12T23:37:04.027Z,24.47
2018-06-12T23:39:32.212Z,22.00
2018-06-12T23:42:00.418Z,22.33
2018-06-12T23:44:28.562Z,21.80
2018-06-12T23:46:56.730Z,23.37
2018-06-12T23:49:24.881Z,21.77
2018-06-12T23:51:53.061Z,20.47
2018-06-12T23:54:21.234Z,20.93
2018-06-12T23:56:49.397Z,21.13
2018-06-12T23:59:17.573Z,22.77
